Athens Highway — 7JPL — position and weather

sailwx.info

Track history (hours):
 
Tides and Currents Weather Stations Pressure Air Temp Water Temp Dewpoint Dewpoint Depression Visibility Wind Speed Wind Dir Waves Ship Positions

Athens Highway

Last reported at 2018-Jun-12 11:14 UTC. Time now 2018-Jun-19 01:01 UTC.
Position N 42°21' W 129°44'.

Length 200 m; draft 8 m.

Type: Cargo ship. MMSI: 432929997.

Date/timePositionNaut miles runAvg speedWind from/ knotsBaromVisibWave heightAir tempDewpointWater temp
2018-Jun-12 11:14N 42°21' W 129°44'416.7
2018-Jun-12 10:59N 42°19' W 129°40'1217.2
2018-Jun-12 10:19N 42°11' W 129°28'616.9
2018-Jun-12 09:57N 42°08' W 129°22'817.0
2018-Jun-12 09:30N 42°03' W 129°14'7616.0
2018-Jun-12 04:46N 41°15' W 127°55'515.3
2018-Jun-12 04:27N 41°11' W 127°50'24315.4
2018-Jun-11 12:42N 38°32' W 123°52'315.8
2018-Jun-11 12:30N 38°30' W 123°49'815.3
2018-Jun-11 12:01N 38°25' W 123°42'715.0
2018-Jun-11 11:31N 38°20' W 123°35'714.8
2018-Jun-11 11:00N 38°15' W 123°28'714.7
2018-Jun-11 10:30N 38°10' W 123°21'510.7
2018-Jun-11 10:00N 38°06' W 123°17'5 9.6
2018-Jun-11 09:30N 38°02' W 123°13'4 8.6
2018-Jun-11 09:00N 37°59' W 123°09'4 9.0
2018-Jun-11 08:30N 37°57' W 123°04'5 9.1
2018-Jun-11 08:00N 37°54' W 122°59'5 9.1
2018-Jun-11 07:30N 37°52' W 122°54'4 8.9
2018-Jun-11 07:00N 37°50' W 122°49'5 9.0
2018-Jun-11 06:30N 37°47' W 122°45'4 9.0
2018-Jun-11 06:00N 37°45' W 122°40'4 8.9
2018-Jun-11 05:30N 37°47' W 122°35'714.2
2018-Jun-11 05:00N 37°50' W 122°27'5 9.0
2018-Jun-11 04:30N 37°55' W 122°27'612.2
2018-Jun-11 04:00N 38°01' W 122°24'612.2
2018-Jun-11 03:30N 38°03' W 122°18'611.5
2018-Jun-11 03:00N 38°03' W 122°10'2 3.2
2018-Jun-11 02:28N 38°02' W 122°08'0 0.0
2018-Jun-11 01:58N 38°02' W 122°08'0 0.0
2018-Jun-11 01:28N 38°02' W 122°08'0 0.0
2018-Jun-11 00:58N 38°02' W 122°08'0 0.0
2018-Jun-11 00:28N 38°02' W 122°08'0 0.0
2018-Jun-10 23:58N 38°02' W 122°08'0 0.0
2018-Jun-10 23:28N 38°02' W 122°08'0 0.0
2018-Jun-10 22:58N 38°02' W 122°08'0 0.0
2018-Jun-10 22:28N 38°02' W 122°08'0 0.0
2018-Jun-10 21:58N 38°02' W 122°08'0 0.0
2018-Jun-10 21:28N 38°02' W 122°08'0 0.0
2018-Jun-10 20:58N 38°02' W 122°08'0 0.0
2018-Jun-10 20:28N 38°02' W 122°08'0 0.0
2018-Jun-10 19:52N 38°02' W 122°08'0 0.0
2018-Jun-10 19:22N 38°02' W 122°08'0 0.0
2018-Jun-10 18:58N 38°02' W 122°08'0 0.0
2018-Jun-10 18:28N 38°02' W 122°08'0 0.0
2018-Jun-10 17:52N 38°02' W 122°08'0 0.0
2018-Jun-10 16:46N 38°02' W 122°08'0 0.0
2018-Jun-10 16:28N 38°02' W 122°08'0 0.0
2018-Jun-10 15:40N 38°02' W 122°08'0 0.0
2018-Jun-10 15:16N 38°02' W 122°08'0 0.0
2018-Jun-10 14:52N 38°02' W 122°08'0 0.0
2018-Jun-10 14:16N 38°02' W 122°08'0 0.0
2018-Jun-10 13:28N 38°02' W 122°08'0 0.0
2018-Jun-10 12:58N 38°02' W 122°08'0 0.0
2018-Jun-10 12:28N 38°02' W 122°08'0 0.0
2018-Jun-10 11:58N 38°02' W 122°08'0 0.0
2018-Jun-10 11:16N 38°02' W 122°08'0 0.0
2018-Jun-10 10:58N 38°02' W 122°08'0 0.0
2018-Jun-10 10:28N 38°02' W 122°08'0 0.0
2018-Jun-10 09:58N 38°02' W 122°08'0 0.0
2018-Jun-10 09:22N 38°02' W 122°08'0 0.0
2018-Jun-10 08:58N 38°02' W 122°08'0 0.0
2018-Jun-10 07:16N 38°02' W 122°08'0 0.0
2018-Jun-10 06:52N 38°02' W 122°08'0 0.0
2018-Jun-10 06:28N 38°02' W 122°08'0 0.8
2018-Jun-10 06:00N 38°02' W 122°08'4 8.8
2018-Jun-10 05:30N 38°04' W 122°13'714.7
2018-Jun-10 05:00N 38°02' W 122°22'714.5
2018-Jun-10 04:30N 37°55' W 122°27'510.6
2018-Jun-10 04:00N 37°50' W 122°27'815.0
2018-Jun-10 03:30N 37°47' W 122°36'510.4
2018-Jun-10 03:00N 37°44' W 122°41'4 9.1
2018-Jun-10 02:30N 37°41' W 122°46'5 9.4
2018-Jun-10 02:00N 37°39' W 122°51'4 7.4
2018-Jun-10 01:31N 37°38' W 122°55'5 9.8
2018-Jun-10 01:00N 37°41' W 122°50'3 5.6
2018-Jun-10 00:30N 37°41' W 122°47'3 6.2
2018-Jun-10 00:00N 37°39' W 122°50'5 9.3
2018-Jun-09 23:30N 37°36' W 122°55'5 9.3
2018-Jun-09 23:00N 37°34' W 122°60'5 9.3
2018-Jun-09 22:30N 37°32' W 123°05'4 8.0
2018-Jun-09 22:00N 37°29' W 123°09'4 8.5
2018-Jun-09 21:30N 37°25' W 123°09'4 7.3
2018-Jun-09 21:00N 37°21' W 123°09'713.5
2018-Jun-09 20:30N 37°15' W 123°09'914.6
2018-Jun-09 19:53N 37°05' W 123°10'10512.1
2018-Jun-09 11:12N 35°33' W 122°08'314.9
2018-Jun-09 11:00N 35°30' W 122°06'1115.0
2018-Jun-09 10:16N 35°20' W 122°01'415.1
2018-Jun-09 10:01N 35°17' W 121°59'815.1
2018-Jun-09 09:30N 35°10' W 121°54'815.0
2018-Jun-09 09:00N 35°04' W 121°50'714.7
2018-Jun-09 08:30N 34°57' W 121°45'714.2
2018-Jun-09 08:00N 34°51' W 121°41'714.0
2018-Jun-09 07:30N 34°45' W 121°37'714.2
2018-Jun-09 07:00N 34°39' W 121°33'713.3
2018-Jun-09 06:29N 34°34' W 121°26'613.3
2018-Jun-09 06:00N 34°33' W 121°19'713.2
2018-Jun-09 05:30N 34°31' W 121°11'713.2
2018-Jun-09 05:00N 34°29' W 121°03'713.8
2018-Jun-09 04:31N 34°27' W 120°55'612.6
2018-Jun-09 04:00N 34°26' W 120°48'4 8.9
2018-Jun-09 03:30N 34°24' W 120°43'5 9.1
2018-Jun-09 03:00N 34°23' W 120°37'5 9.2
2018-Jun-09 02:30N 34°22' W 120°32'5 9.2
2018-Jun-09 02:00N 34°20' W 120°27'5 9.5
2018-Jun-09 01:30N 34°19' W 120°21'510.0
2018-Jun-09 01:00N 34°18' W 120°15'510.1
2018-Jun-09 00:28N 34°17' W 120°09'510.0
2018-Jun-09 00:00N 34°15' W 120°04'610.1
2018-Jun-08 23:25N 34°14' W 119°57'410.2
2018-Jun-08 22:59N 34°13' W 119°51'4 8.6
2018-Jun-08 22:29N 34°12' W 119°47'4 8.1
2018-Jun-08 22:00N 34°11' W 119°42'4 8.3
2018-Jun-08 21:29N 34°10' W 119°37'5 8.6
2018-Jun-08 20:54N 34°08' W 119°31'3 8.4
2018-Jun-08 20:29N 34°07' W 119°27'4 8.2
2018-Jun-08 19:58N 34°06' W 119°22'4 8.7
2018-Jun-08 19:30N 34°05' W 119°18'4 7.4
2018-Jun-08 19:00N 34°06' W 119°13'1 2.1
2018-Jun-08 18:30N 34°06' W 119°12'0 0.0
2018-Jun-08 17:53N 34°06' W 119°12'0 0.0
2018-Jun-08 17:26N 34°06' W 119°12'0 0.0
2018-Jun-08 16:56N 34°06' W 119°12'0 0.0
2018-Jun-08 16:26N 34°06' W 119°12'0 0.0
2018-Jun-08 15:56N 34°06' W 119°12'0 0.0
2018-Jun-08 15:26N 34°06' W 119°12'0 0.0
2018-Jun-08 14:56N 34°06' W 119°12'0 0.0
2018-Jun-08 13:41N 34°06' W 119°12'0 0.0
2018-Jun-08 13:23N 34°06' W 119°12'0 0.0
2018-Jun-08 12:56N 34°06' W 119°12'0 0.0
2018-Jun-08 12:29N 34°06' W 119°12'0 0.0
2018-Jun-08 11:17N 34°06' W 119°12'0 0.0
2018-Jun-08 10:50N 34°06' W 119°12'0 0.0
2018-Jun-08 10:02N 34°06' W 119°12'0 0.1
2018-Jun-08 09:56N 34°06' W 119°12'0 0.0
2018-Jun-08 09:20N 34°06' W 119°12'0 0.0
2018-Jun-08 08:20N 34°06' W 119°12'0 0.0
2018-Jun-08 07:47N 34°06' W 119°12'0 0.0
2018-Jun-08 07:23N 34°06' W 119°12'0 0.0
2018-Jun-08 06:56N 34°06' W 119°12'0 0.0
2018-Jun-08 06:23N 34°06' W 119°12'0 0.0
2018-Jun-08 05:35N 34°06' W 119°12'0 0.0
2018-Jun-08 05:20N 34°06' W 119°12'0 0.0
2018-Jun-08 04:50N 34°06' W 119°12'0 0.0
2018-Jun-08 04:02N 34°06' W 119°12'0 0.0
2018-Jun-08 03:56N 34°06' W 119°12'0 0.0
2018-Jun-08 03:14N 34°06' W 119°12'0 0.0
2018-Jun-08 02:56N 34°06' W 119°12'0 0.0
2018-Jun-08 00:50N 34°06' W 119°12'0 0.0
2018-Jun-08 00:20N 34°06' W 119°12'0 0.0
2018-Jun-07 23:44N 34°06' W 119°12'0 0.0
2018-Jun-07 20:54N 34°06' W 119°12'2 3.8
2018-Jun-07 20:29N 34°08' W 119°13'1 0.2
2018-Jun-07 13:55N 34°09' W 119°12'0 0.3
2018-Jun-07 13:29N 34°09' W 119°12'3 6.1
2018-Jun-07 13:00N 34°07' W 119°15'3 6.1
2018-Jun-07 12:28N 34°04' W 119°13'3 7.3
2018-Jun-07 12:00N 34°02' W 119°09'5 9.5
2018-Jun-07 11:30N 33°57' W 119°10'815.5
2018-Jun-07 11:00N 33°50' W 119°05'815.6
2018-Jun-07 10:30N 33°46' W 118°58'815.9
2018-Jun-07 10:00N 33°43' W 118°49'714.8
2018-Jun-07 09:30N 33°36' W 118°49'815.4
2018-Jun-07 09:00N 33°28' W 118°50'814.9
2018-Jun-07 08:29N 33°22' W 118°44'715.4
2018-Jun-07 08:00N 33°17' W 118°38'714.8
2018-Jun-07 07:30N 33°12' W 118°32'815.4
2018-Jun-07 07:00N 33°09' W 118°23'713.3
2018-Jun-07 06:30N 33°03' W 118°18'612.0
2018-Jun-07 06:00N 32°60' W 118°12'611.4
2018-Jun-07 05:31N 32°55' W 118°08'714.7
2018-Jun-07 05:00N 32°49' W 118°03'815.7
2018-Jun-07 04:30N 32°44' W 117°56'815.7
2018-Jun-07 04:00N 32°39' W 117°49'815.0
2018-Jun-07 03:30N 32°37' W 117°40'816.1
2018-Jun-07 03:00N 32°37' W 117°31'816.0
2018-Jun-07 02:30N 32°36' W 117°21'714.1
2018-Jun-07 01:58N 32°34' W 117°13'1 0.9
2018-Jun-07 00:51N 32°34' W 117°11'0 0.0
2018-Jun-07 00:31N 32°34' W 117°11'0 0.0
2018-Jun-07 00:01N 32°34' W 117°11'0 0.0
2018-Jun-06 23:28N 32°34' W 117°11'0 0.0
2018-Jun-06 22:57N 32°34' W 117°11'0 0.0
2018-Jun-06 22:30N 32°34' W 117°11'0 0.0
2018-Jun-06 21:24N 32°34' W 117°11'0 0.0
2018-Jun-06 21:00N 32°34' W 117°11'0 0.0
2018-Jun-06 20:28N 32°34' W 117°11'0 0.0
2018-Jun-06 19:39N 32°34' W 117°11'0 0.1
2018-Jun-06 19:31N 32°34' W 117°11'0 0.0
2018-Jun-06 18:54N 32°34' W 117°11'0 0.0
2018-Jun-06 18:28N 32°34' W 117°11'0 0.1
2018-Jun-06 18:01N 32°34' W 117°11'0 0.0
2018-Jun-06 17:30N 32°34' W 117°11'0 0.0
2018-Jun-06 16:58N 32°34' W 117°11'0 0.0
2018-Jun-06 16:25N 32°34' W 117°11'0 0.0
2018-Jun-06 15:57N 32°34' W 117°11'0 0.0
2018-Jun-06 15:30N 32°34' W 117°11'0 0.0
2018-Jun-06 14:46N 32°34' W 117°11'0 0.0
2018-Jun-06 14:31N 32°34' W 117°11'0 0.0
2018-Jun-06 14:00N 32°34' W 117°11'0 0.0
2018-Jun-06 11:34N 32°34' W 117°11'0 0.0
2018-Jun-06 11:19N 32°34' W 117°11'0 0.0
2018-Jun-06 10:58N 32°34' W 117°11'0 0.0
2018-Jun-06 10:30N 32°34' W 117°11'0 0.0
2018-Jun-06 09:58N 32°34' W 117°11'0 0.0
2018-Jun-06 09:21N 32°34' W 117°11'0 0.0
2018-Jun-06 08:55N 32°34' W 117°11'0 0.0
2018-Jun-06 08:18N 32°34' W 117°11'0 0.0
2018-Jun-06 03:27N 32°34' W 117°11'4 1.5
2018-Jun-06 01:00N 32°38' W 117°13'5 4.5
2018-Jun-05 23:47N 32°40' W 117°08'6 0.5
2018-Jun-05 12:19N 32°43' W 117°13'410.1
2018-Jun-05 11:56N 32°39' W 117°13'1111.6
2018-Jun-05 10:59N 32°30' W 117°21'815.0
2018-Jun-05 10:28N 32°24' W 117°27'4 9.6
2018-Jun-05 10:00N 32°20' W 117°29'815.0
2018-Jun-05 09:29N 32°13' W 117°27'817.0
2018-Jun-05 09:00N 32°04' W 117°24'917.2
2018-Jun-05 08:30N 31°56' W 117°21'1017.4
2018-Jun-05 07:56N 31°47' W 117°17'2217.3
2018-Jun-05 06:40N 31°26' W 117°09'717.7
2018-Jun-05 06:16N 31°20' W 117°07'517.2
2018-Jun-05 06:00N 31°15' W 117°05'917.1
2018-Jun-05 05:30N 31°07' W 117°02'1317.0
2018-Jun-05 04:45N 30°55' W 116°57'416.8
2018-Jun-05 04:29N 30°51' W 116°56'2416.6
2018-Jun-05 03:02N 30°28' W 116°47'1216.5
2018-Jun-05 02:20N 30°17' W 116°42'816.5
2018-Jun-05 01:52N 30°10' W 116°39'3316.6
2018-Jun-04 23:51N 29°39' W 116°26'816.9
2018-Jun-04 23:22N 29°31' W 116°23'2416.7
2018-Jun-04 21:54N 29°07' W 116°14'3216.6
2018-Jun-04 19:59N 28°38' W 116°01'11116.5
2018-Jun-04 13:15N 26°59' W 115°03'415.6
2018-Jun-04 13:00N 26°56' W 115°00'916.1
2018-Jun-04 12:28N 26°49' W 114°55'916.4
2018-Jun-04 11:57N 26°42' W 114°49'1116.0
2018-Jun-04 11:14N 26°33' W 114°42'415.9
2018-Jun-04 11:00N 26°30' W 114°40'  
Track history (hours):
 
Tides and Currents Weather Stations Pressure Air Temp Water Temp Dewpoint Dewpoint Depression Visibility Wind Speed Wind Dir Waves Ship Positions

Athens Highway

Last reported at 2018-Jun-12 11:14 UTC. Time now 2018-Jun-19 01:01 UTC.
Position N 42°21' W 129°44'.

Length 200 m; draft 8 m.

Type: Cargo ship. MMSI: 432929997.

Date/timePositionNaut miles runAvg speedWind from/ knotsBaromVisibWave heightAir tempDewpointWater temp
2018-Jun-12 11:14N 42°21' W 129°44'416.7
2018-Jun-12 10:59N 42°19' W 129°40'1217.2
2018-Jun-12 10:19N 42°11' W 129°28'616.9
2018-Jun-12 09:57N 42°08' W 129°22'817.0
2018-Jun-12 09:30N 42°03' W 129°14'7616.0
2018-Jun-12 04:46N 41°15' W 127°55'515.3
2018-Jun-12 04:27N 41°11' W 127°50'24315.4
2018-Jun-11 12:42N 38°32' W 123°52'315.8
2018-Jun-11 12:30N 38°30' W 123°49'815.3
2018-Jun-11 12:01N 38°25' W 123°42'715.0
2018-Jun-11 11:31N 38°20' W 123°35'714.8
2018-Jun-11 11:00N 38°15' W 123°28'714.7
2018-Jun-11 10:30N 38°10' W 123°21'510.7
2018-Jun-11 10:00N 38°06' W 123°17'5 9.6
2018-Jun-11 09:30N 38°02' W 123°13'4 8.6
2018-Jun-11 09:00N 37°59' W 123°09'4 9.0
2018-Jun-11 08:30N 37°57' W 123°04'5 9.1
2018-Jun-11 08:00N 37°54' W 122°59'5 9.1
2018-Jun-11 07:30N 37°52' W 122°54'4 8.9
2018-Jun-11 07:00N 37°50' W 122°49'5 9.0
2018-Jun-11 06:30N 37°47' W 122°45'4 9.0
2018-Jun-11 06:00N 37°45' W 122°40'4 8.9
2018-Jun-11 05:30N 37°47' W 122°35'714.2
2018-Jun-11 05:00N 37°50' W 122°27'5 9.0
2018-Jun-11 04:30N 37°55' W 122°27'612.2
2018-Jun-11 04:00N 38°01' W 122°24'612.2
2018-Jun-11 03:30N 38°03' W 122°18'611.5
2018-Jun-11 03:00N 38°03' W 122°10'2 3.2
2018-Jun-11 02:28N 38°02' W 122°08'0 0.0
2018-Jun-11 01:58N 38°02' W 122°08'0 0.0
2018-Jun-11 01:28N 38°02' W 122°08'0 0.0
2018-Jun-11 00:58N 38°02' W 122°08'0 0.0
2018-Jun-11 00:28N 38°02' W 122°08'0 0.0
2018-Jun-10 23:58N 38°02' W 122°08'0 0.0
2018-Jun-10 23:28N 38°02' W 122°08'0 0.0
2018-Jun-10 22:58N 38°02' W 122°08'0 0.0
2018-Jun-10 22:28N 38°02' W 122°08'0 0.0
2018-Jun-10 21:58N 38°02' W 122°08'0 0.0
2018-Jun-10 21:28N 38°02' W 122°08'0 0.0
2018-Jun-10 20:58N 38°02' W 122°08'0 0.0
2018-Jun-10 20:28N 38°02' W 122°08'0 0.0
2018-Jun-10 19:52N 38°02' W 122°08'0 0.0
2018-Jun-10 19:22N 38°02' W 122°08'0 0.0
2018-Jun-10 18:58N 38°02' W 122°08'0 0.0
2018-Jun-10 18:28N 38°02' W 122°08'0 0.0
2018-Jun-10 17:52N 38°02' W 122°08'0 0.0
2018-Jun-10 16:46N 38°02' W 122°08'0 0.0
2018-Jun-10 16:28N 38°02' W 122°08'0 0.0
2018-Jun-10 15:40N 38°02' W 122°08'0 0.0
2018-Jun-10 15:16N 38°02' W 122°08'0 0.0
2018-Jun-10 14:52N 38°02' W 122°08'0 0.0
2018-Jun-10 14:16N 38°02' W 122°08'0 0.0
2018-Jun-10 13:28N 38°02' W 122°08'0 0.0
2018-Jun-10 12:58N 38°02' W 122°08'0 0.0
2018-Jun-10 12:28N 38°02' W 122°08'0 0.0
2018-Jun-10 11:58N 38°02' W 122°08'0 0.0
2018-Jun-10 11:16N 38°02' W 122°08'0 0.0
2018-Jun-10 10:58N 38°02' W 122°08'0 0.0
2018-Jun-10 10:28N 38°02' W 122°08'0 0.0
2018-Jun-10 09:58N 38°02' W 122°08'0 0.0
2018-Jun-10 09:22N 38°02' W 122°08'0 0.0
2018-Jun-10 08:58N 38°02' W 122°08'0 0.0
2018-Jun-10 07:16N 38°02' W 122°08'0 0.0
2018-Jun-10 06:52N 38°02' W 122°08'0 0.0
2018-Jun-10 06:28N 38°02' W 122°08'0 0.8
2018-Jun-10 06:00N 38°02' W 122°08'4 8.8
2018-Jun-10 05:30N 38°04' W 122°13'714.7
2018-Jun-10 05:00N 38°02' W 122°22'714.5
2018-Jun-10 04:30N 37°55' W 122°27'510.6
2018-Jun-10 04:00N 37°50' W 122°27'815.0
2018-Jun-10 03:30N 37°47' W 122°36'510.4
2018-Jun-10 03:00N 37°44' W 122°41'4 9.1
2018-Jun-10 02:30N 37°41' W 122°46'5 9.4
2018-Jun-10 02:00N 37°39' W 122°51'4 7.4
2018-Jun-10 01:31N 37°38' W 122°55'5 9.8
2018-Jun-10 01:00N 37°41' W 122°50'3 5.6
2018-Jun-10 00:30N 37°41' W 122°47'3 6.2
2018-Jun-10 00:00N 37°39' W 122°50'5 9.3
2018-Jun-09 23:30N 37°36' W 122°55'5 9.3
2018-Jun-09 23:00N 37°34' W 122°60'5 9.3
2018-Jun-09 22:30N 37°32' W 123°05'4 8.0
2018-Jun-09 22:00N 37°29' W 123°09'4 8.5
2018-Jun-09 21:30N 37°25' W 123°09'4 7.3
2018-Jun-09 21:00N 37°21' W 123°09'713.5
2018-Jun-09 20:30N 37°15' W 123°09'914.6
2018-Jun-09 19:53N 37°05' W 123°10'10512.1
2018-Jun-09 11:12N 35°33' W 122°08'314.9
2018-Jun-09 11:00N 35°30' W 122°06'1115.0
2018-Jun-09 10:16N 35°20' W 122°01'415.1
2018-Jun-09 10:01N 35°17' W 121°59'815.1
2018-Jun-09 09:30N 35°10' W 121°54'815.0
2018-Jun-09 09:00N 35°04' W 121°50'714.7
2018-Jun-09 08:30N 34°57' W 121°45'714.2
2018-Jun-09 08:00N 34°51' W 121°41'714.0
2018-Jun-09 07:30N 34°45' W 121°37'714.2
2018-Jun-09 07:00N 34°39' W 121°33'713.3
2018-Jun-09 06:29N 34°34' W 121°26'613.3
2018-Jun-09 06:00N 34°33' W 121°19'713.2
2018-Jun-09 05:30N 34°31' W 121°11'713.2
2018-Jun-09 05:00N 34°29' W 121°03'713.8
2018-Jun-09 04:31N 34°27' W 120°55'612.6
2018-Jun-09 04:00N 34°26' W 120°48'4 8.9
2018-Jun-09 03:30N 34°24' W 120°43'5 9.1
2018-Jun-09 03:00N 34°23' W 120°37'5 9.2
2018-Jun-09 02:30N 34°22' W 120°32'5 9.2
2018-Jun-09 02:00N 34°20' W 120°27'5 9.5
2018-Jun-09 01:30N 34°19' W 120°21'510.0
2018-Jun-09 01:00N 34°18' W 120°15'510.1
2018-Jun-09 00:28N 34°17' W 120°09'510.0
2018-Jun-09 00:00N 34°15' W 120°04'610.1
2018-Jun-08 23:25N 34°14' W 119°57'410.2
2018-Jun-08 22:59N 34°13' W 119°51'4 8.6
2018-Jun-08 22:29N 34°12' W 119°47'4 8.1
2018-Jun-08 22:00N 34°11' W 119°42'4 8.3
2018-Jun-08 21:29N 34°10' W 119°37'5 8.6
2018-Jun-08 20:54N 34°08' W 119°31'3 8.4
2018-Jun-08 20:29N 34°07' W 119°27'4 8.2
2018-Jun-08 19:58N 34°06' W 119°22'4 8.7
2018-Jun-08 19:30N 34°05' W 119°18'4 7.4
2018-Jun-08 19:00N 34°06' W 119°13'1 2.1
2018-Jun-08 18:30N 34°06' W 119°12'0 0.0
2018-Jun-08 17:53N 34°06' W 119°12'0 0.0
2018-Jun-08 17:26N 34°06' W 119°12'0 0.0
2018-Jun-08 16:56N 34°06' W 119°12'0 0.0
2018-Jun-08 16:26N 34°06' W 119°12'0 0.0
2018-Jun-08 15:56N 34°06' W 119°12'0 0.0
2018-Jun-08 15:26N 34°06' W 119°12'0 0.0
2018-Jun-08 14:56N 34°06' W 119°12'0 0.0
2018-Jun-08 13:41N 34°06' W 119°12'0 0.0
2018-Jun-08 13:23N 34°06' W 119°12'0 0.0
2018-Jun-08 12:56N 34°06' W 119°12'0 0.0
2018-Jun-08 12:29N 34°06' W 119°12'0 0.0
2018-Jun-08 11:17N 34°06' W 119°12'0 0.0
2018-Jun-08 10:50N 34°06' W 119°12'0 0.0
2018-Jun-08 10:02N 34°06' W 119°12'0 0.1
2018-Jun-08 09:56N 34°06' W 119°12'0 0.0
2018-Jun-08 09:20N 34°06' W 119°12'0 0.0
2018-Jun-08 08:20N 34°06' W 119°12'0 0.0
2018-Jun-08 07:47N 34°06' W 119°12'0 0.0
2018-Jun-08 07:23N 34°06' W 119°12'0 0.0
2018-Jun-08 06:56N 34°06' W 119°12'0 0.0
2018-Jun-08 06:23N 34°06' W 119°12'0 0.0
2018-Jun-08 05:35N 34°06' W 119°12'0 0.0
2018-Jun-08 05:20N 34°06' W 119°12'0 0.0
2018-Jun-08 04:50N 34°06' W 119°12'0 0.0
2018-Jun-08 04:02N 34°06' W 119°12'0 0.0
2018-Jun-08 03:56N 34°06' W 119°12'0 0.0
2018-Jun-08 03:14N 34°06' W 119°12'0 0.0
2018-Jun-08 02:56N 34°06' W 119°12'0 0.0
2018-Jun-08 00:50N 34°06' W 119°12'0 0.0
2018-Jun-08 00:20N 34°06' W 119°12'0 0.0
2018-Jun-07 23:44N 34°06' W 119°12'0 0.0
2018-Jun-07 20:54N 34°06' W 119°12'2 3.8
2018-Jun-07 20:29N 34°08' W 119°13'1 0.2
2018-Jun-07 13:55N 34°09' W 119°12'0 0.3
2018-Jun-07 13:29N 34°09' W 119°12'3 6.1
2018-Jun-07 13:00N 34°07' W 119°15'3 6.1
2018-Jun-07 12:28N 34°04' W 119°13'3 7.3
2018-Jun-07 12:00N 34°02' W 119°09'5 9.5
2018-Jun-07 11:30N 33°57' W 119°10'815.5
2018-Jun-07 11:00N 33°50' W 119°05'815.6
2018-Jun-07 10:30N 33°46' W 118°58'815.9
2018-Jun-07 10:00N 33°43' W 118°49'714.8
2018-Jun-07 09:30N 33°36' W 118°49'815.4
2018-Jun-07 09:00N 33°28' W 118°50'814.9
2018-Jun-07 08:29N 33°22' W 118°44'715.4
2018-Jun-07 08:00N 33°17' W 118°38'714.8
2018-Jun-07 07:30N 33°12' W 118°32'815.4
2018-Jun-07 07:00N 33°09' W 118°23'713.3
2018-Jun-07 06:30N 33°03' W 118°18'612.0
2018-Jun-07 06:00N 32°60' W 118°12'611.4
2018-Jun-07 05:31N 32°55' W 118°08'714.7
2018-Jun-07 05:00N 32°49' W 118°03'815.7
2018-Jun-07 04:30N 32°44' W 117°56'815.7
2018-Jun-07 04:00N 32°39' W 117°49'815.0
2018-Jun-07 03:30N 32°37' W 117°40'816.1
2018-Jun-07 03:00N 32°37' W 117°31'816.0
2018-Jun-07 02:30N 32°36' W 117°21'714.1
2018-Jun-07 01:58N 32°34' W 117°13'1 0.9
2018-Jun-07 00:51N 32°34' W 117°11'0 0.0
2018-Jun-07 00:31N 32°34' W 117°11'0 0.0
2018-Jun-07 00:01N 32°34' W 117°11'0 0.0
2018-Jun-06 23:28N 32°34' W 117°11'0 0.0
2018-Jun-06 22:57N 32°34' W 117°11'0 0.0
2018-Jun-06 22:30N 32°34' W 117°11'0 0.0
2018-Jun-06 21:24N 32°34' W 117°11'0 0.0
2018-Jun-06 21:00N 32°34' W 117°11'0 0.0
2018-Jun-06 20:28N 32°34' W 117°11'0 0.0
2018-Jun-06 19:39N 32°34' W 117°11'0 0.1
2018-Jun-06 19:31N 32°34' W 117°11'0 0.0
2018-Jun-06 18:54N 32°34' W 117°11'0 0.0
2018-Jun-06 18:28N 32°34' W 117°11'0 0.1
2018-Jun-06 18:01N 32°34' W 117°11'0 0.0
2018-Jun-06 17:30N 32°34' W 117°11'0 0.0
2018-Jun-06 16:58N 32°34' W 117°11'0 0.0
2018-Jun-06 16:25N 32°34' W 117°11'0 0.0
2018-Jun-06 15:57N 32°34' W 117°11'0 0.0
2018-Jun-06 15:30N 32°34' W 117°11'0 0.0
2018-Jun-06 14:46N 32°34' W 117°11'0 0.0
2018-Jun-06 14:31N 32°34' W 117°11'0 0.0
2018-Jun-06 14:00N 32°34' W 117°11'0 0.0
2018-Jun-06 11:34N 32°34' W 117°11'0 0.0
2018-Jun-06 11:19N 32°34' W 117°11'0 0.0
2018-Jun-06 10:58N 32°34' W 117°11'0 0.0
2018-Jun-06 10:30N 32°34' W 117°11'0 0.0
2018-Jun-06 09:58N 32°34' W 117°11'0 0.0
2018-Jun-06 09:21N 32°34' W 117°11'0 0.0
2018-Jun-06 08:55N 32°34' W 117°11'0 0.0
2018-Jun-06 08:18N 32°34' W 117°11'0 0.0
2018-Jun-06 03:27N 32°34' W 117°11'4 1.5
2018-Jun-06 01:00N 32°38' W 117°13'5 4.5
2018-Jun-05 23:47N 32°40' W 117°08'6 0.5
2018-Jun-05 12:19N 32°43' W 117°13'410.1
2018-Jun-05 11:56N 32°39' W 117°13'1111.6
2018-Jun-05 10:59N 32°30' W 117°21'815.0
2018-Jun-05 10:28N 32°24' W 117°27'4 9.6
2018-Jun-05 10:00N 32°20' W 117°29'815.0
2018-Jun-05 09:29N 32°13' W 117°27'817.0
2018-Jun-05 09:00N 32°04' W 117°24'917.2
2018-Jun-05 08:30N 31°56' W 117°21'1017.4
2018-Jun-05 07:56N 31°47' W 117°17'2217.3
2018-Jun-05 06:40N 31°26' W 117°09'717.7
2018-Jun-05 06:16N 31°20' W 117°07'517.2
2018-Jun-05 06:00N 31°15' W 117°05'917.1
2018-Jun-05 05:30N 31°07' W 117°02'1317.0
2018-Jun-05 04:45N 30°55' W 116°57'416.8
2018-Jun-05 04:29N 30°51' W 116°56'2416.6
2018-Jun-05 03:02N 30°28' W 116°47'1216.5
2018-Jun-05 02:20N 30°17' W 116°42'816.5
2018-Jun-05 01:52N 30°10' W 116°39'3316.6
2018-Jun-04 23:51N 29°39' W 116°26'816.9
2018-Jun-04 23:22N 29°31' W 116°23'2416.7
2018-Jun-04 21:54N 29°07' W 116°14'3216.6
2018-Jun-04 19:59N 28°38' W 116°01'11116.5
2018-Jun-04 13:15N 26°59' W 115°03'415.6
2018-Jun-04 13:00N 26°56' W 115°00'916.1
2018-Jun-04 12:28N 26°49' W 114°55'916.4
2018-Jun-04 11:57N 26°42' W 114°49'1116.0
2018-Jun-04 11:14N 26°33' W 114°42'415.9
2018-Jun-04 11:00N 26°30' W 114°40'  

Dump ship's entire track history